sensor_id;sensor_type;location;lat;lon;timestamp;pressure;altitude;pressure_sealevel;temperature;humidity
20037;BME280;10179;42.640;23.312;2023-06-10T00:02:26;93221.88;;;20.27;64.23
20037;BME280;10179;42.640;23.312;2023-06-10T00:04:51;93300.50;;;20.77;64.08
20037;BME280;10179;42.640;23.312;2023-06-10T00:07:17;93356.56;;;21.32;63.84
20037;BME280;10179;42.640;23.312;2023-06-10T00:09:43;93240.09;;;20.53;63.75
20037;BME280;10179;42.640;23.312;2023-06-10T00:12:09;93285.19;;;20.82;63.88
20037;BME280;10179;42.640;23.312;2023-06-10T00:14:39;93353.38;;;21.30;63.95
20037;BME280;10179;42.640;23.312;2023-06-10T00:17:06;93190.56;;;20.19;63.52
20037;BME280;10179;42.640;23.312;2023-06-10T00:19:34;93359.25;;;21.32;63.77
20037;BME280;10179;42.640;23.312;2023-06-10T00:22:00;93354.81;;;21.27;63.49
20037;BME280;10179;42.640;23.312;2023-06-10T00:24:25;93358.94;;;21.33;63.54
20037;BME280;10179;42.640;23.312;2023-06-10T00:26:51;93238.72;;;20.56;63.50
20037;BME280;10179;42.640;23.312;2023-06-10T00:29:16;93050.41;;;19.30;63.38
20037;BME280;10179;42.640;23.312;2023-06-10T00:31:43;93338.78;;;21.13;63.63
20037;BME280;10179;42.640;23.312;2023-06-10T00:34:09;93361.91;;;21.32;63.68
20037;BME280;10179;42.640;23.312;2023-06-10T00:36:34;93336.78;;;20.91;63.70
20037;BME280;10179;42.640;23.312;2023-06-10T00:39:01;93358.47;;;21.31;63.67
20037;BME280;10179;42.640;23.312;2023-06-10T00:41:26;92950.38;;;18.64;63.57
20037;BME280;10179;42.640;23.312;2023-06-10T00:43:52;93299.59;;;20.95;63.74
20037;BME280;10179;42.640;23.312;2023-06-10T00:48:45;93372.59;;;21.32;63.55
20037;BME280;10179;42.640;23.312;2023-06-10T00:51:10;93355.78;;;21.31;63.74
20037;BME280;10179;42.640;23.312;2023-06-10T00:53:39;93345.59;;;21.19;63.66
20037;BME280;10179;42.640;23.312;2023-06-10T00:56:05;93332.63;;;21.13;63.36
20037;BME280;10179;42.640;23.312;2023-06-10T00:58:31;93265.22;;;20.52;63.73
20037;BME280;10179;42.640;23.312;2023-06-10T01:00:56;93360.34;;;21.31;63.55
20037;BME280;10179;42.640;23.312;2023-06-10T01:03:23;93088.41;;;19.50;63.59
20037;BME280;10179;42.640;23.312;2023-06-10T01:05:55;93365.69;;;21.31;63.77
20037;BME280;10179;42.640;23.312;2023-06-10T01:09:10;93360.34;;;21.31;63.93
20037;BME280;10179;42.640;23.312;2023-06-10T01:11:27;93371.22;;;21.07;63.63
20037;BME280;10179;42.640;23.312;2023-06-10T01:13:55;93331.38;;;21.10;63.78
20037;BME280;10179;42.640;23.312;2023-06-10T01:16:21;93361.72;;;21.28;63.54
20037;BME280;10179;42.640;23.312;2023-06-10T01:18:47;93349.34;;;21.18;64.10
20037;BME280;10179;42.640;23.312;2023-06-10T01:21:22;93348.75;;;21.21;64.16
20037;BME280;10179;42.640;23.312;2023-06-10T01:23:51;93372.28;;;21.33;63.76
20037;BME280;10179;42.640;23.312;2023-06-10T01:26:18;93372.28;;;21.33;63.65
20037;BME280;10179;42.640;23.312;2023-06-10T01:28:49;93237.50;;;20.48;63.80
20037;BME280;10179;42.640;23.312;2023-06-10T01:34:13;93372.59;;;21.59;63.04
20037;BME280;10179;42.640;23.312;2023-06-10T01:36:40;93367.97;;;21.37;63.34
20037;BME280;10179;42.640;23.312;2023-06-10T01:39:08;93365.59;;;21.36;63.16
20037;BME280;10179;42.640;23.312;2023-06-10T01:41:34;93370.94;;;21.36;63.37
20037;BME280;10179;42.640;23.312;2023-06-10T01:44:00;93374.13;;;21.38;63.19
20037;BME280;10179;42.640;23.312;2023-06-10T01:46:26;93363.91;;;21.40;63.04
20037;BME280;10179;42.640;23.312;2023-06-10T01:48:51;93320.38;;;21.12;63.32
20037;BME280;10179;42.640;23.312;2023-06-10T01:51:17;93363.31;;;21.43;62.70
20037;BME280;10179;42.640;23.312;2023-06-10T01:53:42;93365.97;;;21.43;62.93
20037;BME280;10179;42.640;23.312;2023-06-10T01:56:08;93261.25;;;20.63;62.56
20037;BME280;10179;42.640;23.312;2023-06-10T01:58:33;93310.69;;;21.02;62.92
20037;BME280;10179;42.640;23.312;2023-06-10T02:00:58;93355.59;;;21.41;62.65
20037;BME280;10179;42.640;23.312;2023-06-10T02:03:24;93227.25;;;20.55;63.12
20037;BME280;10179;42.640;23.312;2023-06-10T02:05:49;93217.38;;;20.56;62.84
20037;BME280;10179;42.640;23.312;2023-06-10T02:08:15;93230.84;;;20.64;63.01
20037;BME280;10179;42.640;23.312;2023-06-10T02:10:40;93326.09;;;21.33;63.08
20037;BME280;10179;42.640;23.312;2023-06-10T02:13:06;93166.00;;;20.22;62.95
20037;BME280;10179;42.640;23.312;2023-06-10T02:15:31;93349.94;;;21.43;62.97
20037;BME280;10179;42.640;23.312;2023-06-10T02:17:56;93349.44;;;21.41;62.73
20037;BME280;10179;42.640;23.312;2023-06-10T02:20:23;93153.31;;;20.14;62.71
20037;BME280;10179;42.640;23.312;2023-06-10T02:22:48;93341.03;;;21.34;62.59
20037;BME280;10179;42.640;23.312;2023-06-10T02:25:13;93334.22;;;21.28;62.38
20037;BME280;10179;42.640;23.312;2023-06-10T02:27:39;93297.44;;;20.97;62.76
20037;BME280;10179;42.640;23.312;2023-06-10T02:30:05;93296.66;;;20.96;63.06
20037;BME280;10179;42.640;23.312;2023-06-10T02:32:30;93323.75;;;21.17;63.19
20037;BME280;10179;42.640;23.312;2023-06-10T02:34:56;93014.88;;;19.21;63.10
20037;BME280;10179;42.640;23.312;2023-06-10T02:37:21;93248.63;;;20.69;63.21
20037;BME280;10179;42.640;23.312;2023-06-10T02:39:46;93335.41;;;21.21;62.66
20037;BME280;10179;42.640;23.312;2023-06-10T02:42:12;93343.09;;;21.23;62.84
20037;BME280;10179;42.640;23.312;2023-06-10T02:44:37;93294.84;;;21.06;62.72
20037;BME280;10179;42.640;23.312;2023-06-10T02:47:03;93316.09;;;21.25;62.43
20037;BME280;10179;42.640;23.312;2023-06-10T02:49:29;93283.00;;;20.98;62.63
20037;BME280;10179;42.640;23.312;2023-06-10T02:51:54;93032.63;;;19.40;62.50
20037;BME280;10179;42.640;23.312;2023-06-10T02:54:24;93306.63;;;21.18;62.34
20037;BME280;10179;42.640;23.312;2023-06-10T02:56:51;93204.19;;;20.45;61.97
20037;BME280;10179;42.640;23.312;2023-06-10T02:59:16;93320.28;;;21.31;61.84
20037;BME280;10179;42.640;23.312;2023-06-10T03:01:42;93167.25;;;20.39;61.73
20037;BME280;10179;42.640;23.312;2023-06-10T03:04:07;93321.34;;;21.30;61.60
20037;BME280;10179;42.640;23.312;2023-06-10T03:06:34;93277.38;;;21.00;61.76
20037;BME280;10179;42.640;23.312;2023-06-10T03:09:01;93329.84;;;21.32;61.18
20037;BME280;10179;42.640;23.312;2023-06-10T03:11:26;93329.06;;;21.31;61.42
20037;BME280;10179;42.640;23.312;2023-06-10T03:13:52;93215.38;;;20.34;61.37
20037;BME280;10179;42.640;23.312;2023-06-10T03:16:19;92890.53;;;18.48;61.58
20037;BME280;10179;42.640;23.312;2023-06-10T03:18:44;93282.91;;;21.03;61.82
20037;BME280;10179;42.640;23.312;2023-06-10T03:21:10;93209.88;;;20.58;61.57
20037;BME280;10179;42.640;23.312;2023-06-10T03:23:35;93272.31;;;20.98;61.58
20037;BME280;10179;42.640;23.312;2023-06-10T03:26:01;93264.63;;;20.83;61.65
20037;BME280;10179;42.640;23.312;2023-06-10T03:28:26;93271.13;;;20.77;61.66
20037;BME280;10179;42.640;23.312;2023-06-10T03:30:52;93335.41;;;21.21;61.56
20037;BME280;10179;42.640;23.312;2023-06-10T03:33:17;93339.75;;;21.17;61.54
20037;BME280;10179;42.640;23.312;2023-06-10T03:35:43;93237.13;;;20.41;62.01
20037;BME280;10179;42.640;23.312;2023-06-10T03:38:08;93242.84;;;20.48;62.14
20037;BME280;10179;42.640;23.312;2023-06-10T03:40:34;93348.38;;;21.14;62.18
20037;BME280;10179;42.640;23.312;2023-06-10T03:43:00;93262.53;;;20.52;62.40
20037;BME280;10179;42.640;23.312;2023-06-10T03:45:26;93342.72;;;21.02;62.63
20037;BME280;10179;42.640;23.312;2023-06-10T03:47:53;93315.66;;;20.67;62.90
20037;BME280;10179;42.640;23.312;2023-06-10T03:50:19;93241.72;;;20.21;62.91
20037;BME280;10179;42.640;23.312;2023-06-10T03:52:44;93354.19;;;21.16;62.96
20037;BME280;10179;42.640;23.312;2023-06-10T03:55:11;93087.41;;;19.46;62.99
20037;BME280;10179;42.640;23.312;2023-06-10T03:57:39;93279.47;;;20.75;63.23
20037;BME280;10179;42.640;23.312;2023-06-10T04:00:05;93347.47;;;21.19;63.36
20037;BME280;10179;42.640;23.312;2023-06-10T04:02:36;93343.09;;;21.23;63.28
20037;BME280;10179;42.640;23.312;2023-06-10T04:05:02;93298.22;;;20.97;63.44
20037;BME280;10179;42.640;23.312;2023-06-10T04:07:28;93246.84;;;20.64;63.20
20037;BME280;10179;42.640;23.312;2023-06-10T04:12:19;93347.25;;;21.29;63.58
20037;BME280;10179;42.640;23.312;2023-06-10T04:14:44;93036.00;;;19.31;63.49
20037;BME280;10179;42.640;23.312;2023-06-10T04:17:09;93351.13;;;21.37;63.29
20037;BME280;10179;42.640;23.312;2023-06-10T04:19:35;93239.31;;;20.66;63.39
20037;BME280;10179;42.640;23.312;2023-06-10T04:22:01;93295.88;;;20.96;63.43
20037;BME280;10179;42.640;23.312;2023-06-10T04:24:27;93284.47;;;21.04;63.14
20037;BME280;10179;42.640;23.312;2023-06-10T04:26:52;93322.94;;;21.31;63.38
20037;BME280;10179;42.640;23.312;2023-06-10T04:29:17;93184.84;;;20.40;63.24
20037;BME280;10179;42.640;23.312;2023-06-10T04:31:43;93286.66;;;21.02;63.38
20037;BME280;10179;42.640;23.312;2023-06-10T04:34:08;93329.06;;;21.45;63.22
20037;BME280;10179;42.640;23.312;2023-06-10T04:36:34;93355.34;;;21.65;62.86
20037;BME280;10179;42.640;23.312;2023-06-10T04:38:59;93357.41;;;21.68;63.05
20037;BME280;10179;42.640;23.312;2023-06-10T04:41:25;93299.00;;;21.39;63.38
20037;BME280;10179;42.640;23.312;2023-06-10T04:43:51;93358.09;;;21.74;62.86
20037;BME280;10179;42.640;23.312;2023-06-10T04:46:16;93327.94;;;21.60;62.91
20037;BME280;10179;42.640;23.312;2023-06-10T04:48:42;93356.59;;;21.82;62.84
20037;BME280;10179;42.640;23.312;2023-06-10T04:51:07;93222.69;;;20.97;62.52
20037;BME280;10179;42.640;23.312;2023-06-10T04:53:33;93354.72;;;21.82;63.11
20037;BME280;10179;42.640;23.312;2023-06-10T04:55:58;93357.88;;;21.84;62.91
20037;BME280;10179;42.640;23.312;2023-06-10T04:58:23;93340.69;;;21.77;62.59
20037;BME280;10179;42.640;23.312;2023-06-10T05:00:49;93363.84;;;21.81;62.48
20037;BME280;10179;42.640;23.312;2023-06-10T05:03:15;93354.53;;;21.79;62.66
20037;BME280;10179;42.640;23.312;2023-06-10T05:05:40;93350.78;;;21.80;62.29
20037;BME280;10179;42.640;23.312;2023-06-10T05:08:06;93285.75;;;21.34;62.27
20037;BME280;10179;42.640;23.312;2023-06-10T05:10:31;93385.53;;;21.80;62.74
20037;BME280;10179;42.640;23.312;2023-06-10T05:12:57;93349.78;;;21.76;62.60
20037;BME280;10179;42.640;23.312;2023-06-10T05:15:23;93334.78;;;21.66;63.02
20037;BME280;10179;42.640;23.312;2023-06-10T05:17:49;93354.72;;;21.82;62.77
20037;BME280;10179;42.640;23.312;2023-06-10T05:20:15;92879.78;;;18.86;62.74
20037;BME280;10179;42.640;23.312;2023-06-10T05:22:40;93294.22;;;21.50;62.85
20037;BME280;10179;42.640;23.312;2023-06-10T05:25:07;93003.28;;;19.72;62.96
20037;BME280;10179;42.640;23.312;2023-06-10T05:27:32;93349.31;;;21.96;63.14
20037;BME280;10179;42.640;23.312;2023-06-10T05:29:57;93346.34;;;21.98;62.83
20037;BME280;10179;42.640;23.312;2023-06-10T05:32:23;93357.34;;;21.96;62.83
20037;BME280;10179;42.640;23.312;2023-06-10T05:34:48;93359.03;;;21.92;62.51
20037;BME280;10179;42.640;23.312;2023-06-10T05:37:14;93353.31;;;21.85;62.36
20037;BME280;10179;42.640;23.312;2023-06-10T05:39:39;93304.91;;;21.50;62.96
20037;BME280;10179;42.640;23.312;2023-06-10T05:42:06;93355.13;;;21.76;63.21
20037;BME280;10179;42.640;23.312;2023-06-10T05:44:32;93358.59;;;21.76;63.03
20037;BME280;10179;42.640;23.312;2023-06-10T05:46:58;93343.06;;;21.64;63.12
20037;BME280;10179;42.640;23.312;2023-06-10T05:49:23;93356.00;;;21.85;63.06
20037;BME280;10179;42.640;23.312;2023-06-10T05:51:49;93210.72;;;20.94;63.43
20037;BME280;10179;42.640;23.312;2023-06-10T05:54:14;93340.44;;;21.87;63.33
20037;BME280;10179;42.640;23.312;2023-06-10T05:56:40;93364.03;;;22.07;63.43
20037;BME280;10179;42.640;23.312;2023-06-10T05:59:06;93364.44;;;22.14;62.78
20037;BME280;10179;42.640;23.312;2023-06-10T06:01:31;93211.56;;;21.17;62.80
20037;BME280;10179;42.640;23.312;2023-06-10T06:03:56;93334.13;;;22.05;62.94
20037;BME280;10179;42.640;23.312;2023-06-10T06:06:22;93304.59;;;21.88;62.67
20037;BME280;10179;42.640;23.312;2023-06-10T06:08:48;93311.59;;;21.98;62.48
20037;BME280;10179;42.640;23.312;2023-06-10T06:11:13;93362.22;;;22.39;62.32
20037;BME280;10179;42.640;23.312;2023-06-10T06:13:39;93367.78;;;22.43;61.72
20037;BME280;10179;42.640;23.312;2023-06-10T06:16:04;93297.78;;;22.04;61.58
20037;BME280;10179;42.640;23.312;2023-06-10T06:18:30;93365.41;;;22.41;61.99
20037;BME280;10179;42.640;23.312;2023-06-10T06:20:55;93372.34;;;22.42;62.02
20037;BME280;10179;42.640;23.312;2023-06-10T06:23:20;93365.91;;;22.43;61.53
20037;BME280;10179;42.640;23.312;2023-06-10T06:25:46;93222.94;;;21.59;61.64
20037;BME280;10179;42.640;23.312;2023-06-10T06:28:11;93363.75;;;22.54;61.45
20037;BME280;10179;42.640;23.312;2023-06-10T06:30:36;93371.16;;;22.57;61.27
20037;BME280;10179;42.640;23.312;2023-06-10T06:33:02;93324.06;;;22.25;60.72
20037;BME280;10179;42.640;23.312;2023-06-10T06:35:27;93310.44;;;22.12;60.74
20037;BME280;10179;42.640;23.312;2023-06-10T06:37:55;93373.53;;;22.58;60.85
20037;BME280;10179;42.640;23.312;2023-06-10T06:40:20;93342.78;;;22.47;60.86
20037;BME280;10179;42.640;23.312;2023-06-10T06:42:46;93328.91;;;22.45;60.93
20037;BME280;10179;42.640;23.312;2023-06-10T06:45:11;93255.00;;;22.04;60.66
20037;BME280;10179;42.640;23.312;2023-06-10T06:47:37;93365.19;;;22.82;59.72
20037;BME280;10179;42.640;23.312;2023-06-10T06:50:02;93341.91;;;22.60;59.42
20037;BME280;10179;42.640;23.312;2023-06-10T06:52:28;93366.75;;;22.83;59.79
20037;BME280;10179;42.640;23.312;2023-06-10T06:54:53;93283.72;;;22.44;59.90
20037;BME280;10179;42.640;23.312;2023-06-10T06:57:19;93334.44;;;22.80;58.93
20037;BME280;10179;42.640;23.312;2023-06-10T06:59:44;93224.31;;;22.10;58.64
20037;BME280;10179;42.640;23.312;2023-06-10T07:02:10;93312.06;;;22.76;58.43
20037;BME280;10179;42.640;23.312;2023-06-10T07:04:35;93361.41;;;23.15;58.73
20037;BME280;10179;42.640;23.312;2023-06-10T07:07:01;93319.91;;;23.03;58.57
20037;BME280;10179;42.640;23.312;2023-06-10T07:09:26;93361.34;;;23.46;57.77
20037;BME280;10179;42.640;23.312;2023-06-10T07:11:51;93354.88;;;23.55;57.53
20037;BME280;10179;42.640;23.312;2023-06-10T07:14:17;93355.09;;;23.68;57.21
20037;BME280;10179;42.640;23.312;2023-06-10T07:16:42;93316.38;;;23.51;56.57
20037;BME280;10179;42.640;23.312;2023-06-10T07:19:10;93044.44;;;21.96;56.07
20037;BME280;10179;42.640;23.312;2023-06-10T07:21:35;93342.63;;;24.07;55.40
20037;BME280;10179;42.640;23.312;2023-06-10T07:24:01;93348.00;;;24.24;54.83
20037;BME280;10179;42.640;23.312;2023-06-10T07:26:27;93344.81;;;24.39;54.10
20037;BME280;10179;42.640;23.312;2023-06-10T07:28:52;93342.59;;;24.59;53.77
20037;BME280;10179;42.640;23.312;2023-06-10T07:31:18;93216.84;;;23.96;52.51
20037;BME280;10179;42.640;23.312;2023-06-10T07:33:43;93346.16;;;24.89;51.74
20037;BME280;10179;42.640;23.312;2023-06-10T07:36:09;93339.78;;;25.02;51.77
20037;BME280;10179;42.640;23.312;2023-06-10T07:38:36;93349.25;;;25.17;51.18
20037;BME280;10179;42.640;23.312;2023-06-10T07:41:01;93327.91;;;25.12;50.03
20037;BME280;10179;42.640;23.312;2023-06-10T07:43:27;93346.84;;;25.24;49.49
20037;BME280;10179;42.640;23.312;2023-06-10T07:45:52;93256.47;;;24.72;49.39
20037;BME280;10179;42.640;23.312;2023-06-10T07:48:18;93347.56;;;25.33;49.71
20037;BME280;10179;42.640;23.312;2023-06-10T07:50:43;93338.72;;;25.33;49.15
20037;BME280;10179;42.640;23.312;2023-06-10T07:53:09;93349.59;;;25.45;48.68
20037;BME280;10179;42.640;23.312;2023-06-10T07:55:34;93362.69;;;25.46;48.06
20037;BME280;10179;42.640;23.312;2023-06-10T07:58:00;93315.50;;;25.28;47.30
20037;BME280;10179;42.640;23.312;2023-06-10T08:00:25;93342.44;;;25.49;47.17
20037;BME280;10179;42.640;23.312;2023-06-10T08:02:50;93313.78;;;25.23;46.52
20037;BME280;10179;42.640;23.312;2023-06-10T08:05:18;93360.00;;;25.46;47.33
20037;BME280;10179;42.640;23.312;2023-06-10T08:07:44;93275.13;;;24.98;46.98
20037;BME280;10179;42.640;23.312;2023-06-10T08:10:10;93315.13;;;25.38;47.32
20037;BME280;10179;42.640;23.312;2023-06-10T08:12:35;93350.53;;;25.70;46.68
20037;BME280;10179;42.640;23.312;2023-06-10T08:15:02;93346.81;;;25.83;45.40
20037;BME280;10179;42.640;23.312;2023-06-10T08:17:30;93347.22;;;26.15;43.64
20037;BME280;10179;42.640;23.312;2023-06-10T08:19:55;93346.00;;;26.46;42.03
20037;BME280;10179;42.640;23.312;2023-06-10T08:22:20;93251.00;;;26.24;43.69
20037;BME280;10179;42.640;23.312;2023-06-10T08:24:46;93337.25;;;27.27;42.48
20037;BME280;10179;42.640;23.312;2023-06-10T08:27:11;93240.13;;;27.15;38.17
20037;BME280;10179;42.640;23.312;2023-06-10T08:29:37;93295.75;;;27.97;38.29
20037;BME280;10179;42.640;23.312;2023-06-10T08:32:02;93287.28;;;28.39;38.04
20037;BME280;10179;42.640;23.312;2023-06-10T08:34:28;93310.25;;;29.20;37.33
20037;BME280;10179;42.640;23.312;2023-06-10T08:36:53;93325.22;;;30.01;35.46
20037;BME280;10179;42.640;23.312;2023-06-10T08:39:21;93327.88;;;30.55;35.00
20037;BME280;10179;42.640;23.312;2023-06-10T08:44:35;93321.34;;;31.22;32.68
20037;BME280;10179;42.640;23.312;2023-06-10T08:47:06;93285.78;;;31.30;33.01
20037;BME280;10179;42.640;23.312;2023-06-10T08:49:38;93265.97;;;31.26;32.61
20037;BME280;10179;42.640;23.312;2023-06-10T08:52:06;93313.16;;;31.68;32.29
20037;BME280;10179;42.640;23.312;2023-06-10T08:54:33;93312.28;;;31.87;31.26
20037;BME280;10179;42.640;23.312;2023-06-10T08:57:05;93296.63;;;32.06;30.52
20037;BME280;10179;42.640;23.312;2023-06-10T08:59:33;93227.34;;;31.63;30.82
20037;BME280;10179;42.640;23.312;2023-06-10T09:02:01;93302.31;;;31.94;30.09
20037;BME280;10179;42.640;23.312;2023-06-10T09:04:27;93293.34;;;31.94;29.60
20037;BME280;10179;42.640;23.312;2023-06-10T09:06:54;93296.00;;;31.90;29.33
20037;BME280;10179;42.640;23.312;2023-06-10T09:09:20;93299.00;;;31.81;29.59
20037;BME280;10179;42.640;23.312;2023-06-10T09:11:47;93298.00;;;31.67;30.25
20037;BME280;10179;42.640;23.312;2023-06-10T09:14:13;93267.13;;;31.52;29.75
20037;BME280;10179;42.640;23.312;2023-06-10T09:16:39;93298.69;;;31.60;30.54
20037;BME280;10179;42.640;23.312;2023-06-10T09:19:05;93297.38;;;31.50;30.36
20037;BME280;10179;42.640;23.312;2023-06-10T09:21:33;93269.84;;;31.25;30.79
20037;BME280;10179;42.640;23.312;2023-06-10T09:23:59;93300.03;;;31.24;31.59
20037;BME280;10179;42.640;23.312;2023-06-10T09:26:28;93294.50;;;31.17;30.84
20037;BME280;10179;42.640;23.312;2023-06-10T09:29:01;93294.97;;;31.22;30.53
20037;BME280;10179;42.640;23.312;2023-06-10T09:31:28;93293.81;;;31.23;30.25
20037;BME280;10179;42.640;23.312;2023-06-10T09:33:53;93290.38;;;31.26;30.08
20037;BME280;10179;42.640;23.312;2023-06-10T09:36:22;93270.06;;;31.17;30.31
20037;BME280;10179;42.640;23.312;2023-06-10T09:38:49;93284.84;;;31.19;30.91
20037;BME280;10179;42.640;23.312;2023-06-10T09:41:15;93285.00;;;31.30;29.77
20037;BME280;10179;42.640;23.312;2023-06-10T09:43:45;93276.72;;;31.42;29.64
20037;BME280;10179;42.640;23.312;2023-06-10T09:46:15;93279.94;;;31.51;29.97
20037;BME280;10179;42.640;23.312;2023-06-10T09:48:42;93236.47;;;31.25;29.75
20037;BME280;10179;42.640;23.312;2023-06-10T09:51:09;93257.47;;;31.54;29.91
20037;BME280;10179;42.640;23.312;2023-06-10T09:53:35;93262.19;;;31.57;29.32
20037;BME280;10179;42.640;23.312;2023-06-10T09:56:01;93240.47;;;31.57;28.79
20037;BME280;10179;42.640;23.312;2023-06-10T09:58:39;93270.31;;;31.84;28.43
20037;BME280;10179;42.640;23.312;2023-06-10T10:01:12;93262.69;;;31.93;29.49
20037;BME280;10179;42.640;23.312;2023-06-10T10:03:50;93247.19;;;31.97;28.51
20037;BME280;10179;42.640;23.312;2023-06-10T10:06:17;93259.81;;;32.13;29.04
20037;BME280;10179;42.640;23.312;2023-06-10T10:08:45;93233.03;;;32.15;28.66
20037;BME280;10179;42.640;23.312;2023-06-10T10:11:10;93246.97;;;32.43;29.01
20037;BME280;10179;42.640;23.312;2023-06-10T10:13:37;93249.44;;;32.55;28.57
20037;BME280;10179;42.640;23.312;2023-06-10T10:16:10;93253.31;;;32.54;27.86
20037;BME280;10179;42.640;23.312;2023-06-10T10:18:41;93181.28;;;32.04;27.77
20037;BME280;10179;42.640;23.312;2023-06-10T10:21:12;93194.66;;;32.20;27.89
20037;BME280;10179;42.640;23.312;2023-06-10T10:23:48;93241.47;;;32.77;27.24
20037;BME280;10179;42.640;23.312;2023-06-10T10:26:17;93242.00;;;32.90;26.31
20037;BME280;10179;42.640;23.312;2023-06-10T10:29:25;93245.47;;;32.49;26.81
20037;BME280;10179;42.640;23.312;2023-06-10T10:31:56;93244.56;;;32.38;27.14
20037;BME280;10179;42.640;23.312;2023-06-10T10:34:59;93123.72;;;31.91;27.72
20037;BME280;10179;42.640;23.312;2023-06-10T10:37:16;93168.44;;;32.38;27.23
20037;BME280;10179;42.640;23.312;2023-06-10T10:39:42;93235.84;;;32.96;26.84
20037;BME280;10179;42.640;23.312;2023-06-10T10:42:08;93232.88;;;33.16;27.26
20037;BME280;10179;42.640;23.312;2023-06-10T10:44:37;93231.44;;;33.33;26.03
20037;BME280;10179;42.640;23.312;2023-06-10T10:47:03;93233.25;;;33.69;25.40
20037;BME280;10179;42.640;23.312;2023-06-10T10:49:32;93227.16;;;33.97;25.07
20037;BME280;10179;42.640;23.312;2023-06-10T10:52:00;93224.00;;;33.88;25.48
20037;BME280;10179;42.640;23.312;2023-06-10T10:54:33;93223.81;;;33.49;25.61
20037;BME280;10179;42.640;23.312;2023-06-10T10:57:18;93213.72;;;33.01;26.33
20037;BME280;10179;42.640;23.312;2023-06-10T10:59:58;93216.53;;;33.16;26.34
20037;BME280;10179;42.640;23.312;2023-06-10T11:04:58;93190.88;;;33.17;26.21
20037;BME280;10179;42.640;23.312;2023-06-10T11:07:30;93211.41;;;33.04;26.11
20037;BME280;10179;42.640;23.312;2023-06-10T11:10:01;93211.22;;;32.41;26.28
20037;BME280;10179;42.640;23.312;2023-06-10T11:15:11;93194.34;;;31.91;27.27
20037;BME280;10179;42.640;23.312;2023-06-10T11:17:37;93195.94;;;31.66;28.06
20037;BME280;10179;42.640;23.312;2023-06-10T11:20:03;93059.16;;;30.60;28.12
20037;BME280;10179;42.640;23.312;2023-06-10T11:22:28;93142.44;;;30.83;28.49
20037;BME280;10179;42.640;23.312;2023-06-10T11:24:54;92919.97;;;29.23;28.62
20037;BME280;10179;42.640;23.312;2023-06-10T11:27:23;93183.97;;;30.87;29.42
20037;BME280;10179;42.640;23.312;2023-06-10T11:32:32;93167.97;;;30.82;30.63
20037;BME280;10179;42.640;23.312;2023-06-10T11:34:58;93110.50;;;30.23;30.21
20037;BME280;10179;42.640;23.312;2023-06-10T11:37:24;93168.06;;;30.62;30.36
20037;BME280;10179;42.640;23.312;2023-06-10T11:39:56;93204.28;;;30.51;29.95
20037;BME280;10179;42.640;23.312;2023-06-10T11:42:24;93174.06;;;30.52;30.03
20037;BME280;10179;42.640;23.312;2023-06-10T11:44:53;93157.84;;;30.29;30.58
20037;BME280;10179;42.640;23.312;2023-06-10T11:47:19;93171.59;;;30.21;30.06
20037;BME280;10179;42.640;23.312;2023-06-10T11:49:49;93154.09;;;29.95;29.48
20037;BME280;10179;42.640;23.312;2023-06-10T11:52:26;93170.28;;;29.91;29.90
20037;BME280;10179;42.640;23.312;2023-06-10T11:54:55;93134.00;;;29.57;30.83
20037;BME280;10179;42.640;23.312;2023-06-10T11:57:21;93162.06;;;29.68;30.64
20037;BME280;10179;42.640;23.312;2023-06-10T11:59:46;93057.69;;;28.93;30.74
20037;BME280;10179;42.640;23.312;2023-06-10T12:02:18;93076.16;;;29.07;30.35
20037;BME280;10179;42.640;23.312;2023-06-10T12:04:44;93156.66;;;29.68;30.51
20037;BME280;10179;42.640;23.312;2023-06-10T12:07:17;93167.22;;;29.74;29.94
20037;BME280;10179;42.640;23.312;2023-06-10T12:09:44;93182.38;;;29.78;29.59
20037;BME280;10179;42.640;23.312;2023-06-10T12:12:09;93163.88;;;29.80;30.01
20037;BME280;10179;42.640;23.312;2023-06-10T12:14:56;93168.06;;;29.78;29.77
20037;BME280;10179;42.640;23.312;2023-06-10T12:17:42;93155.44;;;29.66;30.42
20037;BME280;10179;42.640;23.312;2023-06-10T12:20:23;93121.09;;;29.31;30.86
20037;BME280;10179;42.640;23.312;2023-06-10T12:22:49;93156.13;;;29.43;30.89
20037;BME280;10179;42.640;23.312;2023-06-10T12:25:15;93140.31;;;29.26;31.22
20037;BME280;10179;42.640;23.312;2023-06-10T12:27:50;93153.00;;;29.41;31.35
20037;BME280;10179;42.640;23.312;2023-06-10T12:30:19;93102.91;;;29.12;32.23
20037;BME280;10179;42.640;23.312;2023-06-10T12:32:46;93147.25;;;29.43;32.17
20037;BME280;10179;42.640;23.312;2023-06-10T12:35:18;93080.28;;;29.01;31.90
20037;BME280;10179;42.640;23.312;2023-06-10T12:37:59;93155.34;;;29.43;32.20
20037;BME280;10179;42.640;23.312;2023-06-10T12:40:37;93137.41;;;29.35;32.15
20037;BME280;10179;42.640;23.312;2023-06-10T12:43:05;93141.94;;;29.31;32.53
20037;BME280;10179;42.640;23.312;2023-06-10T12:45:36;93057.88;;;28.65;31.88
20037;BME280;10179;42.640;23.312;2023-06-10T12:48:21;93126.56;;;29.15;31.64
20037;BME280;10179;42.640;23.312;2023-06-10T12:50:54;93119.00;;;29.05;31.88
20037;BME280;10179;42.640;23.312;2023-06-10T12:53:21;93130.81;;;29.16;32.00
20037;BME280;10179;42.640;23.312;2023-06-10T12:55:49;93113.59;;;29.05;31.90
20037;BME280;10179;42.640;23.312;2023-06-10T12:58:15;93069.72;;;28.61;30.19
20037;BME280;10179;42.640;23.312;2023-06-10T13:00:41;93124.94;;;29.11;30.29
20037;BME280;10179;42.640;23.312;2023-06-10T13:03:08;93147.06;;;29.16;30.33
20037;BME280;10179;42.640;23.312;2023-06-10T13:05:35;93137.66;;;29.10;30.55
20037;BME280;10179;42.640;23.312;2023-06-10T13:08:02;93138.38;;;29.07;30.52
20037;BME280;10179;42.640;23.312;2023-06-10T13:10:28;93138.63;;;29.02;31.01